sensor_id;sensor_type;location;lat;lon;timestamp;P1;durP1;ratioP1;P2;durP2;ratioP2
77206;SDS011;66190;50.708;7.906;2024-03-02T00:00:35;8.50;;;4.00;;
77206;SDS011;66190;50.708;7.906;2024-03-02T00:03:01;7.63;;;3.17;;
77206;SDS011;66190;50.708;7.906;2024-03-02T00:05:27;8.00;;;3.33;;
77206;SDS011;66190;50.708;7.906;2024-03-02T00:07:53;8.47;;;3.27;;
77206;SDS011;66190;50.708;7.906;2024-03-02T00:10:24;9.32;;;3.65;;
77206;SDS011;66190;50.708;7.906;2024-03-02T00:12:54;7.43;;;3.00;;
77206;SDS011;66190;50.708;7.906;2024-03-02T00:17:55;8.53;;;3.50;;
77206;SDS011;66190;50.708;7.906;2024-03-02T00:20:24;10.60;;;3.50;;
77206;SDS011;66190;50.708;7.906;2024-03-02T00:22:55;10.50;;;4.55;;
77206;SDS011;66190;50.708;7.906;2024-03-02T00:30:55;10.45;;;4.20;;
77206;SDS011;66190;50.708;7.906;2024-03-02T00:33:30;9.40;;;3.90;;
77206;SDS011;66190;50.708;7.906;2024-03-02T00:35:58;9.80;;;3.85;;
77206;SDS011;66190;50.708;7.906;2024-03-02T00:38:25;10.40;;;4.28;;
77206;SDS011;66190;50.708;7.906;2024-03-02T00:40:51;10.03;;;4.63;;
77206;SDS011;66190;50.708;7.906;2024-03-02T00:46:06;11.18;;;5.13;;
77206;SDS011;66190;50.708;7.906;2024-03-02T00:48:32;11.87;;;5.07;;
77206;SDS011;66190;50.708;7.906;2024-03-02T00:51:00;11.70;;;5.40;;
77206;SDS011;66190;50.708;7.906;2024-03-02T00:53:26;12.75;;;5.63;;
77206;SDS011;66190;50.708;7.906;2024-03-02T00:55:52;13.47;;;5.57;;
77206;SDS011;66190;50.708;7.906;2024-03-02T00:58:18;12.60;;;6.10;;
77206;SDS011;66190;50.708;7.906;2024-03-02T01:00:43;13.07;;;6.00;;
77206;SDS011;66190;50.708;7.906;2024-03-02T01:03:09;13.13;;;6.40;;
77206;SDS011;66190;50.708;7.906;2024-03-02T01:05:35;14.50;;;6.53;;
77206;SDS011;66190;50.708;7.906;2024-03-02T01:08:01;14.32;;;6.50;;
77206;SDS011;66190;50.708;7.906;2024-03-02T01:10:26;15.70;;;6.10;;
77206;SDS011;66190;50.708;7.906;2024-03-02T01:12:52;14.50;;;6.83;;
77206;SDS011;66190;50.708;7.906;2024-03-02T01:15:18;13.95;;;6.45;;
77206;SDS011;66190;50.708;7.906;2024-03-02T01:17:44;17.17;;;7.30;;
77206;SDS011;66190;50.708;7.906;2024-03-02T01:20:09;14.02;;;6.38;;
77206;SDS011;66190;50.708;7.906;2024-03-02T01:22:35;15.97;;;6.83;;
77206;SDS011;66190;50.708;7.906;2024-03-02T01:25:01;14.70;;;6.20;;
77206;SDS011;66190;50.708;7.906;2024-03-02T01:27:26;13.75;;;6.43;;
77206;SDS011;66190;50.708;7.906;2024-03-02T01:29:52;15.27;;;7.00;;
77206;SDS011;66190;50.708;7.906;2024-03-02T01:32:17;11.87;;;5.57;;
77206;SDS011;66190;50.708;7.906;2024-03-02T01:34:43;13.65;;;6.13;;
77206;SDS011;66190;50.708;7.906;2024-03-02T01:37:08;13.63;;;6.00;;
77206;SDS011;66190;50.708;7.906;2024-03-02T01:39:35;13.30;;;6.20;;
77206;SDS011;66190;50.708;7.906;2024-03-02T01:42:00;13.10;;;5.60;;
77206;SDS011;66190;50.708;7.906;2024-03-02T01:44:26;13.20;;;5.90;;
77206;SDS011;66190;50.708;7.906;2024-03-02T01:46:51;15.68;;;6.50;;
77206;SDS011;66190;50.708;7.906;2024-03-02T01:49:17;14.43;;;6.23;;
77206;SDS011;66190;50.708;7.906;2024-03-02T01:51:43;14.65;;;6.28;;
77206;SDS011;66190;50.708;7.906;2024-03-02T01:54:09;14.13;;;5.73;;
77206;SDS011;66190;50.708;7.906;2024-03-02T01:56:34;14.60;;;6.00;;
77206;SDS011;66190;50.708;7.906;2024-03-02T01:59:00;14.38;;;6.32;;
77206;SDS011;66190;50.708;7.906;2024-03-02T02:01:25;15.80;;;6.40;;
77206;SDS011;66190;50.708;7.906;2024-03-02T02:03:51;13.30;;;5.82;;
77206;SDS011;66190;50.708;7.906;2024-03-02T02:06:17;13.60;;;5.70;;
77206;SDS011;66190;50.708;7.906;2024-03-02T02:08:42;14.50;;;6.10;;
77206;SDS011;66190;50.708;7.906;2024-03-02T02:11:08;14.30;;;5.40;;
77206;SDS011;66190;50.708;7.906;2024-03-02T02:13:33;13.00;;;5.53;;
77206;SDS011;66190;50.708;7.906;2024-03-02T02:16:08;13.60;;;5.13;;
77206;SDS011;66190;50.708;7.906;2024-03-02T02:18:34;16.90;;;5.65;;
77206;SDS011;66190;50.708;7.906;2024-03-02T02:21:00;12.55;;;5.07;;
77206;SDS011;66190;50.708;7.906;2024-03-02T02:23:26;14.90;;;6.43;;
77206;SDS011;66190;50.708;7.906;2024-03-02T02:25:51;14.20;;;5.50;;
77206;SDS011;66190;50.708;7.906;2024-03-02T02:28:17;11.60;;;4.70;;
77206;SDS011;66190;50.708;7.906;2024-03-02T02:30:42;13.63;;;5.83;;
77206;SDS011;66190;50.708;7.906;2024-03-02T02:33:08;12.88;;;6.22;;
77206;SDS011;66190;50.708;7.906;2024-03-02T02:35:34;14.75;;;5.10;;
77206;SDS011;66190;50.708;7.906;2024-03-02T02:37:59;15.82;;;6.18;;
77206;SDS011;66190;50.708;7.906;2024-03-02T02:40:26;11.63;;;4.90;;
77206;SDS011;66190;50.708;7.906;2024-03-02T02:42:51;12.40;;;5.50;;
77206;SDS011;66190;50.708;7.906;2024-03-02T02:45:17;13.75;;;6.22;;
77206;SDS011;66190;50.708;7.906;2024-03-02T02:47:43;14.30;;;5.90;;
77206;SDS011;66190;50.708;7.906;2024-03-02T02:50:09;13.50;;;5.78;;
77206;SDS011;66190;50.708;7.906;2024-03-02T02:52:36;16.25;;;7.63;;
77206;SDS011;66190;50.708;7.906;2024-03-02T02:55:04;12.77;;;6.17;;
77206;SDS011;66190;50.708;7.906;2024-03-02T02:57:34;14.13;;;6.45;;
77206;SDS011;66190;50.708;7.906;2024-03-02T03:00:07;15.50;;;5.85;;
77206;SDS011;66190;50.708;7.906;2024-03-02T03:02:40;12.77;;;5.28;;
77206;SDS011;66190;50.708;7.906;2024-03-02T03:05:07;14.90;;;5.95;;
77206;SDS011;66190;50.708;7.906;2024-03-02T03:07:33;13.07;;;5.53;;
77206;SDS011;66190;50.708;7.906;2024-03-02T03:10:02;12.60;;;6.07;;
77206;SDS011;66190;50.708;7.906;2024-03-02T03:12:29;13.55;;;6.10;;
77206;SDS011;66190;50.708;7.906;2024-03-02T03:14:56;13.23;;;5.50;;
77206;SDS011;66190;50.708;7.906;2024-03-02T03:17:22;13.63;;;5.22;;
77206;SDS011;66190;50.708;7.906;2024-03-02T03:19:48;12.67;;;4.80;;
77206;SDS011;66190;50.708;7.906;2024-03-02T03:22:13;13.00;;;5.30;;
77206;SDS011;66190;50.708;7.906;2024-03-02T03:24:39;13.60;;;5.83;;
77206;SDS011;66190;50.708;7.906;2024-03-02T03:27:04;13.37;;;5.87;;
77206;SDS011;66190;50.708;7.906;2024-03-02T03:29:29;13.23;;;5.93;;
77206;SDS011;66190;50.708;7.906;2024-03-02T03:31:55;13.50;;;5.27;;
77206;SDS011;66190;50.708;7.906;2024-03-02T03:34:20;13.13;;;5.90;;
77206;SDS011;66190;50.708;7.906;2024-03-02T03:36:46;13.97;;;6.23;;
77206;SDS011;66190;50.708;7.906;2024-03-02T03:39:11;13.70;;;5.83;;
77206;SDS011;66190;50.708;7.906;2024-03-02T03:41:36;14.83;;;5.47;;
77206;SDS011;66190;50.708;7.906;2024-03-02T03:44:02;12.53;;;5.57;;
77206;SDS011;66190;50.708;7.906;2024-03-02T03:46:28;12.63;;;5.53;;
77206;SDS011;66190;50.708;7.906;2024-03-02T03:48:54;13.37;;;5.80;;
77206;SDS011;66190;50.708;7.906;2024-03-02T03:51:20;13.05;;;5.72;;
77206;SDS011;66190;50.708;7.906;2024-03-02T03:53:47;13.65;;;6.20;;
77206;SDS011;66190;50.708;7.906;2024-03-02T03:56:13;14.70;;;6.00;;
77206;SDS011;66190;50.708;7.906;2024-03-02T03:58:38;12.85;;;5.40;;
77206;SDS011;66190;50.708;7.906;2024-03-02T04:01:04;13.20;;;5.13;;
77206;SDS011;66190;50.708;7.906;2024-03-02T04:03:29;13.77;;;5.27;;
77206;SDS011;66190;50.708;7.906;2024-03-02T04:05:55;13.48;;;5.50;;
77206;SDS011;66190;50.708;7.906;2024-03-02T04:08:21;14.17;;;5.50;;
77206;SDS011;66190;50.708;7.906;2024-03-02T04:10:46;12.03;;;5.50;;
77206;SDS011;66190;50.708;7.906;2024-03-02T04:13:12;12.95;;;5.45;;
77206;SDS011;66190;50.708;7.906;2024-03-02T04:15:37;15.82;;;6.22;;
77206;SDS011;66190;50.708;7.906;2024-03-02T04:18:03;12.60;;;5.27;;
77206;SDS011;66190;50.708;7.906;2024-03-02T04:20:28;11.18;;;5.13;;
77206;SDS011;66190;50.708;7.906;2024-03-02T04:22:55;11.97;;;5.50;;
77206;SDS011;66190;50.708;7.906;2024-03-02T04:25:20;13.00;;;5.22;;
77206;SDS011;66190;50.708;7.906;2024-03-02T04:27:46;11.97;;;4.80;;
77206;SDS011;66190;50.708;7.906;2024-03-02T04:30:12;11.77;;;4.60;;
77206;SDS011;66190;50.708;7.906;2024-03-02T04:32:37;13.03;;;5.57;;
77206;SDS011;66190;50.708;7.906;2024-03-02T04:35:03;12.15;;;5.10;;
77206;SDS011;66190;50.708;7.906;2024-03-02T04:37:30;11.80;;;5.72;;
77206;SDS011;66190;50.708;7.906;2024-03-02T04:39:57;13.10;;;5.33;;
77206;SDS011;66190;50.708;7.906;2024-03-02T04:42:22;14.05;;;5.55;;
77206;SDS011;66190;50.708;7.906;2024-03-02T04:44:48;11.87;;;4.80;;
77206;SDS011;66190;50.708;7.906;2024-03-02T04:47:13;12.47;;;5.40;;
77206;SDS011;66190;50.708;7.906;2024-03-02T04:49:39;12.88;;;5.80;;
77206;SDS011;66190;50.708;7.906;2024-03-02T04:52:04;13.05;;;5.78;;
77206;SDS011;66190;50.708;7.906;2024-03-02T04:54:29;18.97;;;5.10;;
77206;SDS011;66190;50.708;7.906;2024-03-02T04:56:55;12.50;;;4.50;;
77206;SDS011;66190;50.708;7.906;2024-03-02T04:59:20;11.83;;;5.20;;
77206;SDS011;66190;50.708;7.906;2024-03-02T05:01:46;13.20;;;5.10;;
77206;SDS011;66190;50.708;7.906;2024-03-02T05:04:12;12.40;;;4.90;;
77206;SDS011;66190;50.708;7.906;2024-03-02T05:06:40;12.55;;;5.35;;
77206;SDS011;66190;50.708;7.906;2024-03-02T05:09:09;12.77;;;4.70;;
77206;SDS011;66190;50.708;7.906;2024-03-02T05:11:35;12.52;;;5.10;;
77206;SDS011;66190;50.708;7.906;2024-03-02T05:14:04;13.18;;;5.40;;
77206;SDS011;66190;50.708;7.906;2024-03-02T05:16:32;13.90;;;5.10;;
77206;SDS011;66190;50.708;7.906;2024-03-02T05:18:59;14.70;;;6.57;;
77206;SDS011;66190;50.708;7.906;2024-03-02T05:21:24;12.57;;;4.87;;
77206;SDS011;66190;50.708;7.906;2024-03-02T05:23:49;12.50;;;5.67;;
77206;SDS011;66190;50.708;7.906;2024-03-02T05:26:15;12.63;;;4.90;;
77206;SDS011;66190;50.708;7.906;2024-03-02T05:28:41;11.65;;;5.45;;
77206;SDS011;66190;50.708;7.906;2024-03-02T05:31:09;13.43;;;4.83;;
77206;SDS011;66190;50.708;7.906;2024-03-02T05:33:37;14.75;;;5.20;;
77206;SDS011;66190;50.708;7.906;2024-03-02T05:36:03;12.45;;;5.47;;
77206;SDS011;66190;50.708;7.906;2024-03-02T05:38:29;13.53;;;6.20;;
77206;SDS011;66190;50.708;7.906;2024-03-02T05:40:54;13.45;;;5.32;;
77206;SDS011;66190;50.708;7.906;2024-03-02T05:43:20;14.23;;;5.97;;
77206;SDS011;66190;50.708;7.906;2024-03-02T05:45:45;11.93;;;5.37;;
77206;SDS011;66190;50.708;7.906;2024-03-02T05:48:11;11.17;;;4.80;;
77206;SDS011;66190;50.708;7.906;2024-03-02T05:50:36;11.43;;;4.93;;
77206;SDS011;66190;50.708;7.906;2024-03-02T05:53:02;12.87;;;4.50;;
77206;SDS011;66190;50.708;7.906;2024-03-02T05:55:27;11.60;;;5.07;;
77206;SDS011;66190;50.708;7.906;2024-03-02T05:57:52;11.60;;;4.17;;
77206;SDS011;66190;50.708;7.906;2024-03-02T06:00:37;12.98;;;5.38;;
77206;SDS011;66190;50.708;7.906;2024-03-02T06:03:03;12.57;;;5.38;;
77206;SDS011;66190;50.708;7.906;2024-03-02T06:05:29;10.30;;;4.10;;
77206;SDS011;66190;50.708;7.906;2024-03-02T06:07:54;12.77;;;5.13;;
77206;SDS011;66190;50.708;7.906;2024-03-02T06:10:20;12.32;;;4.75;;
77206;SDS011;66190;50.708;7.906;2024-03-02T06:12:45;11.93;;;4.83;;
77206;SDS011;66190;50.708;7.906;2024-03-02T06:15:11;14.37;;;5.77;;
77206;SDS011;66190;50.708;7.906;2024-03-02T06:17:36;13.87;;;5.27;;
77206;SDS011;66190;50.708;7.906;2024-03-02T06:20:02;13.85;;;4.80;;
77206;SDS011;66190;50.708;7.906;2024-03-02T06:22:28;13.33;;;4.63;;
77206;SDS011;66190;50.708;7.906;2024-03-02T06:24:53;13.25;;;5.25;;
77206;SDS011;66190;50.708;7.906;2024-03-02T06:27:18;14.27;;;5.83;;
77206;SDS011;66190;50.708;7.906;2024-03-02T06:29:44;10.63;;;4.97;;
77206;SDS011;66190;50.708;7.906;2024-03-02T06:32:09;13.53;;;5.70;;
77206;SDS011;66190;50.708;7.906;2024-03-02T06:34:35;13.93;;;5.43;;
77206;SDS011;66190;50.708;7.906;2024-03-02T06:37:00;12.37;;;4.90;;
77206;SDS011;66190;50.708;7.906;2024-03-02T06:39:25;12.57;;;4.60;;
77206;SDS011;66190;50.708;7.906;2024-03-02T06:41:51;9.70;;;4.27;;
77206;SDS011;66190;50.708;7.906;2024-03-02T06:44:17;11.70;;;4.57;;
77206;SDS011;66190;50.708;7.906;2024-03-02T06:46:42;10.82;;;4.32;;
77206;SDS011;66190;50.708;7.906;2024-03-02T06:49:09;10.05;;;4.20;;
77206;SDS011;66190;50.708;7.906;2024-03-02T06:51:35;9.47;;;4.10;;
77206;SDS011;66190;50.708;7.906;2024-03-02T06:54:01;10.05;;;3.47;;
77206;SDS011;66190;50.708;7.906;2024-03-02T06:56:27;12.43;;;4.00;;
77206;SDS011;66190;50.708;7.906;2024-03-02T06:58:52;9.33;;;3.60;;
77206;SDS011;66190;50.708;7.906;2024-03-02T07:01:18;8.40;;;3.13;;
77206;SDS011;66190;50.708;7.906;2024-03-02T07:03:45;11.10;;;4.10;;
77206;SDS011;66190;50.708;7.906;2024-03-02T07:06:10;11.60;;;4.20;;
77206;SDS011;66190;50.708;7.906;2024-03-02T07:08:36;8.80;;;3.77;;
77206;SDS011;66190;50.708;7.906;2024-03-02T07:11:01;10.52;;;3.88;;
77206;SDS011;66190;50.708;7.906;2024-03-02T07:13:26;10.02;;;3.95;;
77206;SDS011;66190;50.708;7.906;2024-03-02T07:15:52;10.57;;;3.70;;
77206;SDS011;66190;50.708;7.906;2024-03-02T07:18:35;10.07;;;3.70;;
77206;SDS011;66190;50.708;7.906;2024-03-02T07:21:09;8.63;;;3.93;;
77206;SDS011;66190;50.708;7.906;2024-03-02T07:23:34;9.27;;;3.42;;
77206;SDS011;66190;50.708;7.906;2024-03-02T07:26:00;9.37;;;3.30;;
77206;SDS011;66190;50.708;7.906;2024-03-02T07:28:26;7.82;;;3.13;;
77206;SDS011;66190;50.708;7.906;2024-03-02T07:31:02;8.68;;;3.50;;
77206;SDS011;66190;50.708;7.906;2024-03-02T07:33:29;10.82;;;3.25;;
77206;SDS011;66190;50.708;7.906;2024-03-02T07:35:55;7.90;;;3.07;;
77206;SDS011;66190;50.708;7.906;2024-03-02T07:38:21;10.23;;;3.80;;
77206;SDS011;66190;50.708;7.906;2024-03-02T07:40:47;9.13;;;3.50;;
77206;SDS011;66190;50.708;7.906;2024-03-02T07:43:15;8.48;;;3.03;;
77206;SDS011;66190;50.708;7.906;2024-03-02T07:45:42;10.23;;;3.80;;
77206;SDS011;66190;50.708;7.906;2024-03-02T07:48:07;11.03;;;4.10;;
77206;SDS011;66190;50.708;7.906;2024-03-02T07:50:33;8.45;;;3.38;;
77206;SDS011;66190;50.708;7.906;2024-03-02T07:53:00;8.30;;;3.08;;
77206;SDS011;66190;50.708;7.906;2024-03-02T07:55:29;9.10;;;3.42;;
77206;SDS011;66190;50.708;7.906;2024-03-02T07:57:56;9.65;;;3.10;;
77206;SDS011;66190;50.708;7.906;2024-03-02T08:00:22;10.15;;;3.70;;
77206;SDS011;66190;50.708;7.906;2024-03-02T08:02:48;8.03;;;2.97;;
77206;SDS011;66190;50.708;7.906;2024-03-02T08:05:16;9.23;;;3.08;;
77206;SDS011;66190;50.708;7.906;2024-03-02T08:07:43;8.30;;;2.90;;
77206;SDS011;66190;50.708;7.906;2024-03-02T08:10:09;8.68;;;3.45;;
77206;SDS011;66190;50.708;7.906;2024-03-02T08:12:34;8.03;;;2.70;;
77206;SDS011;66190;50.708;7.906;2024-03-02T08:15:00;8.33;;;2.90;;
77206;SDS011;66190;50.708;7.906;2024-03-02T08:17:25;10.15;;;3.53;;
77206;SDS011;66190;50.708;7.906;2024-03-02T08:19:51;8.77;;;2.93;;
77206;SDS011;66190;50.708;7.906;2024-03-02T08:22:16;8.83;;;3.27;;
77206;SDS011;66190;50.708;7.906;2024-03-02T08:24:42;9.20;;;3.10;;
77206;SDS011;66190;50.708;7.906;2024-03-02T08:27:07;7.53;;;2.53;;
77206;SDS011;66190;50.708;7.906;2024-03-02T08:29:34;9.07;;;3.05;;
77206;SDS011;66190;50.708;7.906;2024-03-02T08:32:00;8.57;;;2.40;;
77206;SDS011;66190;50.708;7.906;2024-03-02T08:34:25;8.50;;;3.10;;
77206;SDS011;66190;50.708;7.906;2024-03-02T08:36:51;8.53;;;2.80;;
77206;SDS011;66190;50.708;7.906;2024-03-02T08:39:16;7.70;;;2.50;;
77206;SDS011;66190;50.708;7.906;2024-03-02T08:41:44;8.75;;;3.20;;
77206;SDS011;66190;50.708;7.906;2024-03-02T08:44:11;9.68;;;3.75;;
77206;SDS011;66190;50.708;7.906;2024-03-02T08:46:38;7.73;;;2.77;;
77206;SDS011;66190;50.708;7.906;2024-03-02T08:49:04;7.45;;;2.78;;
77206;SDS011;66190;50.708;7.906;2024-03-02T08:51:30;9.95;;;3.20;;
77206;SDS011;66190;50.708;7.906;2024-03-02T08:53:56;6.93;;;2.73;;
77206;SDS011;66190;50.708;7.906;2024-03-02T08:56:23;8.50;;;3.60;;
77206;SDS011;66190;50.708;7.906;2024-03-02T08:58:49;9.38;;;3.55;;
77206;SDS011;66190;50.708;7.906;2024-03-02T09:01:15;7.60;;;3.15;;
77206;SDS011;66190;50.708;7.906;2024-03-02T09:03:41;8.15;;;3.15;;
77206;SDS011;66190;50.708;7.906;2024-03-02T09:06:09;7.80;;;2.67;;
77206;SDS011;66190;50.708;7.906;2024-03-02T09:08:35;10.27;;;3.42;;
77206;SDS011;66190;50.708;7.906;2024-03-02T09:11:01;7.78;;;2.92;;
77206;SDS011;66190;50.708;7.906;2024-03-02T09:13:28;6.55;;;2.65;;
77206;SDS011;66190;50.708;7.906;2024-03-02T09:15:54;8.50;;;2.73;;
77206;SDS011;66190;50.708;7.906;2024-03-02T09:18:19;7.20;;;2.60;;
77206;SDS011;66190;50.708;7.906;2024-03-02T09:20:44;7.00;;;2.57;;
77206;SDS011;66190;50.708;7.906;2024-03-02T09:23:11;7.72;;;2.88;;
77206;SDS011;66190;50.708;7.906;2024-03-02T09:25:36;7.10;;;2.63;;
77206;SDS011;66190;50.708;7.906;2024-03-02T09:28:02;7.40;;;2.30;;
77206;SDS011;66190;50.708;7.906;2024-03-02T09:30:28;7.57;;;2.80;;
77206;SDS011;66190;50.708;7.906;2024-03-02T09:32:53;6.23;;;2.20;;
77206;SDS011;66190;50.708;7.906;2024-03-02T09:35:19;7.05;;;2.63;;
77206;SDS011;66190;50.708;7.906;2024-03-02T09:37:44;7.33;;;2.30;;
77206;SDS011;66190;50.708;7.906;2024-03-02T09:40:10;6.20;;;2.42;;
77206;SDS011;66190;50.708;7.906;2024-03-02T09:42:36;7.80;;;2.60;;
77206;SDS011;66190;50.708;7.906;2024-03-02T09:45:02;8.68;;;2.30;;
77206;SDS011;66190;50.708;7.906;2024-03-02T09:47:28;8.05;;;2.65;;
77206;SDS011;66190;50.708;7.906;2024-03-02T09:49:54;8.10;;;2.40;;
77206;SDS011;66190;50.708;7.906;2024-03-02T09:52:20;7.53;;;2.72;;
77206;SDS011;66190;50.708;7.906;2024-03-02T09:54:48;6.15;;;2.00;;
77206;SDS011;66190;50.708;7.906;2024-03-02T09:57:14;7.33;;;2.27;;
77206;SDS011;66190;50.708;7.906;2024-03-02T09:59:39;5.90;;;2.25;;
77206;SDS011;66190;50.708;7.906;2024-03-02T10:02:05;5.60;;;1.80;;
77206;SDS011;66190;50.708;7.906;2024-03-02T10:04:32;5.70;;;1.95;;
77206;SDS011;66190;50.708;7.906;2024-03-02T10:07:14;5.50;;;1.67;;
77206;SDS011;66190;50.708;7.906;2024-03-02T10:09:41;5.93;;;2.08;;
77206;SDS011;66190;50.708;7.906;2024-03-02T10:12:08;5.50;;;1.80;;
77206;SDS011;66190;50.708;7.906;2024-03-02T10:14:34;5.88;;;1.90;;
77206;SDS011;66190;50.708;7.906;2024-03-02T10:17:03;5.93;;;2.30;;
77206;SDS011;66190;50.708;7.906;2024-03-02T10:19:30;5.55;;;1.83;;
77206;SDS011;66190;50.708;7.906;2024-03-02T10:22:00;5.00;;;1.90;;
77206;SDS011;66190;50.708;7.906;2024-03-02T10:24:27;5.40;;;2.00;;
77206;SDS011;66190;50.708;7.906;2024-03-02T10:26:53;6.28;;;1.92;;
77206;SDS011;66190;50.708;7.906;2024-03-02T10:29:19;6.50;;;2.03;;
77206;SDS011;66190;50.708;7.906;2024-03-02T10:31:45;5.93;;;2.13;;
77206;SDS011;66190;50.708;7.906;2024-03-02T10:34:11;5.50;;;1.67;;
77206;SDS011;66190;50.708;7.906;2024-03-02T10:36:40;5.28;;;1.48;;
77206;SDS011;66190;50.708;7.906;2024-03-02T10:39:07;4.77;;;1.80;;
77206;SDS011;66190;50.708;7.906;2024-03-02T10:41:34;6.28;;;2.10;;
77206;SDS011;66190;50.708;7.906;2024-03-02T10:44:04;6.47;;;2.00;;
77206;SDS011;66190;50.708;7.906;2024-03-02T10:46:34;6.22;;;1.95;;
77206;SDS011;66190;50.708;7.906;2024-03-02T10:49:00;5.82;;;1.67;;
77206;SDS011;66190;50.708;7.906;2024-03-02T10:51:27;6.30;;;2.47;;
77206;SDS011;66190;50.708;7.906;2024-03-02T10:53:56;5.10;;;2.05;;
77206;SDS011;66190;50.708;7.906;2024-03-02T10:56:32;5.82;;;2.13;;
77206;SDS011;66190;50.708;7.906;2024-03-02T11:01:34;5.70;;;1.73;;
77206;SDS011;66190;50.708;7.906;2024-03-02T11:04:01;5.70;;;1.60;;
77206;SDS011;66190;50.708;7.906;2024-03-02T11:06:29;5.68;;;1.83;;
77206;SDS011;66190;50.708;7.906;2024-03-02T11:08:58;5.20;;;1.85;;
77206;SDS011;66190;50.708;7.906;2024-03-02T11:11:32;5.53;;;2.00;;
77206;SDS011;66190;50.708;7.906;2024-03-02T11:14:01;6.20;;;1.90;;
77206;SDS011;66190;50.708;7.906;2024-03-02T11:16:34;6.30;;;2.00;;
77206;SDS011;66190;50.708;7.906;2024-03-02T11:19:05;5.50;;;1.90;;
77206;SDS011;66190;50.708;7.906;2024-03-02T11:21:33;5.95;;;2.15;;
77206;SDS011;66190;50.708;7.906;2024-03-02T11:23:59;6.57;;;2.20;;
77206;SDS011;66190;50.708;7.906;2024-03-02T11:26:25;8.20;;;2.60;;
77206;SDS011;66190;50.708;7.906;2024-03-02T11:28:50;5.33;;;1.90;;
77206;SDS011;66190;50.708;7.906;2024-03-02T11:31:16;5.30;;;2.00;;
77206;SDS011;66190;50.708;7.906;2024-03-02T11:33:42;5.30;;;1.70;;
77206;SDS011;66190;50.708;7.906;2024-03-02T11:36:08;6.35;;;1.90;;
77206;SDS011;66190;50.708;7.906;2024-03-02T11:38:34;6.60;;;2.00;;
77206;SDS011;66190;50.708;7.906;2024-03-02T11:41:01;5.70;;;2.08;;
77206;SDS011;66190;50.708;7.906;2024-03-02T11:43:39;5.50;;;1.90;;
77206;SDS011;66190;50.708;7.906;2024-03-02T11:46:05;5.18;;;2.13;;
77206;SDS011;66190;50.708;7.906;2024-03-02T11:48:38;6.25;;;2.00;;
77206;SDS011;66190;50.708;7.906;2024-03-02T11:51:04;4.97;;;1.90;;
77206;SDS011;66190;50.708;7.906;2024-03-02T11:53:30;6.20;;;2.10;;
77206;SDS011;66190;50.708;7.906;2024-03-02T11:55:57;5.72;;;2.28;;
77206;SDS011;66190;50.708;7.906;2024-03-02T11:58:23;5.70;;;2.08;;
77206;SDS011;66190;50.708;7.906;2024-03-02T12:00:51;5.90;;;2.03;;
77206;SDS011;66190;50.708;7.906;2024-03-02T12:03:22;5.63;;;2.15;;
77206;SDS011;66190;50.708;7.906;2024-03-02T12:05:57;5.85;;;2.00;;
77206;SDS011;66190;50.708;7.906;2024-03-02T12:08:23;6.57;;;2.28;;
77206;SDS011;66190;50.708;7.906;2024-03-02T12:10:59;5.95;;;2.33;;
77206;SDS011;66190;50.708;7.906;2024-03-02T12:13:28;6.47;;;1.73;;
77206;SDS011;66190;50.708;7.906;2024-03-02T12:15:54;5.90;;;2.20;;
77206;SDS011;66190;50.708;7.906;2024-03-02T12:18:21;6.00;;;2.17;;
77206;SDS011;66190;50.708;7.906;2024-03-02T12:20:48;5.15;;;2.00;;
77206;SDS011;66190;50.708;7.906;2024-03-02T12:23:14;5.80;;;1.90;;
77206;SDS011;66190;50.708;7.906;2024-03-02T12:25:39;5.50;;;1.60;;
77206;SDS011;66190;50.708;7.906;2024-03-02T12:28:05;5.47;;;2.00;;
77206;SDS011;66190;50.708;7.906;2024-03-02T12:30:31;7.63;;;2.08;;
77206;SDS011;66190;50.708;7.906;2024-03-02T12:33:00;5.30;;;1.70;;
77206;SDS011;66190;50.708;7.906;2024-03-02T12:35:25;6.60;;;2.22;;
77206;SDS011;66190;50.708;7.906;2024-03-02T12:37:52;5.80;;;1.97;;
77206;SDS011;66190;50.708;7.906;2024-03-02T12:40:18;5.95;;;1.98;;
77206;SDS011;66190;50.708;7.906;2024-03-02T12:42:44;9.52;;;3.85;;
77206;SDS011;66190;50.708;7.906;2024-03-02T12:45:11;9.40;;;2.83;;
77206;SDS011;66190;50.708;7.906;2024-03-02T12:47:39;6.47;;;2.17;;
77206;SDS011;66190;50.708;7.906;2024-03-02T12:50:05;6.40;;;2.30;;
77206;SDS011;66190;50.708;7.906;2024-03-02T12:52:31;7.28;;;2.42;;
77206;SDS011;66190;50.708;7.906;2024-03-02T12:54:58;6.47;;;2.10;;
77206;SDS011;66190;50.708;7.906;2024-03-02T12:57:25;5.53;;;1.90;;
77206;SDS011;66190;50.708;7.906;2024-03-02T13:00:00;5.15;;;1.92;;
77206;SDS011;66190;50.708;7.906;2024-03-02T13:02:34;4.50;;;1.67;;
77206;SDS011;66190;50.708;7.906;2024-03-02T13:05:00;5.23;;;1.87;;
77206;SDS011;66190;50.708;7.906;2024-03-02T13:07:26;5.00;;;1.70;;
77206;SDS011;66190;50.708;7.906;2024-03-02T13:09:53;4.47;;;1.60;;
77206;SDS011;66190;50.708;7.906;2024-03-02T13:12:23;5.35;;;1.80;;
77206;SDS011;66190;50.708;7.906;2024-03-02T13:14:51;4.57;;;1.52;;
77206;SDS011;66190;50.708;7.906;2024-03-02T13:17:17;5.35;;;1.88;;
77206;SDS011;66190;50.708;7.906;2024-03-02T13:19:50;4.72;;;1.58;;
77206;SDS011;66190;50.708;7.906;2024-03-02T13:22:25;5.65;;;1.63;;
77206;SDS011;66190;50.708;7.906;2024-03-02T13:24:51;5.07;;;1.50;;
77206;SDS011;66190;50.708;7.906;2024-03-02T13:27:19;5.88;;;1.92;;
77206;SDS011;66190;50.708;7.906;2024-03-02T13:29:48;4.85;;;1.58;;
77206;SDS011;66190;50.708;7.906;2024-03-02T13:32:14;6.07;;;2.10;;
77206;SDS011;66190;50.708;7.906;2024-03-02T13:34:40;6.30;;;2.03;;
77206;SDS011;66190;50.708;7.906;2024-03-02T13:37:06;4.32;;;1.20;;
77206;SDS011;66190;50.708;7.906;2024-03-02T13:39:31;4.83;;;1.30;;
77206;SDS011;66190;50.708;7.906;2024-03-02T13:41:58;4.50;;;1.30;;
77206;SDS011;66190;50.708;7.906;2024-03-02T13:44:30;4.30;;;1.35;;
77206;SDS011;66190;50.708;7.906;2024-03-02T13:46:56;5.68;;;1.40;;
77206;SDS011;66190;50.708;7.906;2024-03-02T13:49:23;5.07;;;1.70;;
77206;SDS011;66190;50.708;7.906;2024-03-02T13:51:48;5.20;;;1.55;;
77206;SDS011;66190;50.708;7.906;2024-03-02T13:54:14;4.73;;;1.40;;
77206;SDS011;66190;50.708;7.906;2024-03-02T13:56:39;4.40;;;1.23;;
77206;SDS011;66190;50.708;7.906;2024-03-02T13:59:06;5.25;;;1.52;;
77206;SDS011;66190;50.708;7.906;2024-03-02T14:01:32;3.90;;;1.10;;
77206;SDS011;66190;50.708;7.906;2024-03-02T14:03:58;4.93;;;1.40;;
77206;SDS011;66190;50.708;7.906;2024-03-02T14:06:23;4.68;;;1.50;;
77206;SDS011;66190;50.708;7.906;2024-03-02T14:08:49;4.85;;;1.40;;
77206;SDS011;66190;50.708;7.906;2024-03-02T14:11:15;4.20;;;1.27;;
77206;SDS011;66190;50.708;7.906;2024-03-02T14:13:41;4.70;;;1.30;;
77206;SDS011;66190;50.708;7.906;2024-03-02T14:16:09;4.03;;;1.10;;
77206;SDS011;66190;50.708;7.906;2024-03-02T14:18:34;3.95;;;1.00;;
77206;SDS011;66190;50.708;7.906;2024-03-02T14:21:01;4.65;;;1.10;;
77206;SDS011;66190;50.708;7.906;2024-03-02T14:23:26;4.97;;;1.20;;
77206;SDS011;66190;50.708;7.906;2024-03-02T14:25:53;4.85;;;1.30;;
77206;SDS011;66190;50.708;7.906;2024-03-02T14:28:18;4.43;;;1.30;;
77206;SDS011;66190;50.708;7.906;2024-03-02T14:30:44;5.57;;;1.30;;
77206;SDS011;66190;50.708;7.906;2024-03-02T14:33:10;4.47;;;1.13;;
77206;SDS011;66190;50.708;7.906;2024-03-02T14:35:36;4.07;;;0.97;;
77206;SDS011;66190;50.708;7.906;2024-03-02T14:38:01;3.85;;;1.00;;
77206;SDS011;66190;50.708;7.906;2024-03-02T14:40:26;4.23;;;1.17;;
77206;SDS011;66190;50.708;7.906;2024-03-02T14:42:54;3.80;;;1.20;;
77206;SDS011;66190;50.708;7.906;2024-03-02T14:45:19;4.13;;;1.20;;
77206;SDS011;66190;50.708;7.906;2024-03-02T14:47:44;3.87;;;1.20;;
77206;SDS011;66190;50.708;7.906;2024-03-02T14:50:10;3.60;;;1.10;;